Time;durP1;ratioP1;P1;durP2;ratioP2;P2;SDS_P1;SDS_P2;PMS_P1;PMS_P2;Temp;Humidity;BMP_temperature;BMP_pressure;BME280_temperature;BME280_humidity;BME280_pressure;Samples;Min_cycle;Max_cycle;Signal;HPM_P1;HPM_P2
2022/08/20 00:01:54;;;;;;;10.78;4.87;;;;;;;19.64;87.67;97862.65;1741382;81;21008;-60
2022/08/20 00:04:20;;;;;;;10.65;4.90;;;;;;;19.63;87.57;97855.62;1746483;80;21525;-62
2022/08/20 00:06:47;;;;;;;12.00;4.92;;;;;;;19.59;87.67;97856.12;1741639;81;21114;-63
2022/08/20 00:09:14;;;;;;;10.32;4.37;;;;;;;19.56;87.85;97851.38;1750602;81;20955;-62
2022/08/20 00:11:41;;;;;;;9.10;4.70;;;;;;;19.56;87.83;97854.09;1741594;80;21139;-61
2022/08/20 00:14:07;;;;;;;9.45;4.83;;;;;;;19.56;87.80;97851.38;1746518;81;20940;-61
2022/08/20 00:16:35;;;;;;;8.95;4.75;;;;;;;19.54;87.82;97850.95;1744781;81;21070;-61
2022/08/20 00:19:05;;;;;;;7.10;4.50;;;;;;;19.52;87.81;97849.16;1746757;81;21522;-61
2022/08/20 00:21:31;;;;;;;6.55;4.37;;;;;;;19.48;87.86;97853.70;1748916;80;20896;-61
2022/08/20 00:23:58;;;;;;;13.53;4.78;;;;;;;19.47;87.90;97848.86;1744214;80;21205;-61
2022/08/20 00:26:25;;;;;;;15.00;4.83;;;;;;;19.48;87.91;97842.27;1746164;81;20900;-60
2022/08/20 00:28:51;;;;;;;7.37;4.70;;;;;;;19.46;87.92;97839.68;1748286;81;20932;-62
2022/08/20 00:31:21;;;;;;;11.40;4.90;;;;;;;19.44;87.95;97841.97;1745043;81;20947;-60
2022/08/20 00:33:47;;;;;;;8.63;5.00;;;;;;;19.40;87.96;97841.10;1739088;80;20932;-60
2022/08/20 00:36:16;;;;;;;7.55;3.90;;;;;;;19.37;88.06;97844.51;1748507;81;21101;-62
2022/08/20 00:38:44;;;;;;;12.98;4.30;;;;;;;19.36;88.25;97842.95;1748174;81;20905;-61
2022/08/20 00:41:15;;;;;;;7.45;4.65;;;;;;;19.38;88.31;97837.95;1746811;80;20900;-61
2022/08/20 00:44:13;;;;;;;8.50;5.10;;;;;;;19.36;88.29;97837.52;1746322;81;20873;-61
2022/08/20 00:46:40;;;;;;;9.48;5.22;;;;;;;19.35;88.28;97841.33;1742306;81;20884;-62
2022/08/20 00:49:08;;;;;;;8.50;4.42;;;;;;;19.30;88.40;97841.58;1750892;81;21231;-61
2022/08/20 00:51:42;;;;;;;8.23;4.30;;;;;;;19.27;88.60;97844.99;1750577;82;21478;-62
2022/08/20 00:54:31;;;;;;;6.47;4.30;;;;;;;19.22;88.77;97843.33;1750627;81;20951;-62
2022/08/20 00:57:12;;;;;;;7.85;4.85;;;;;;;19.17;89.04;97853.68;1740419;81;21490;-60
2022/08/20 00:59:40;;;;;;;10.48;4.97;;;;;;;19.12;89.41;97852.78;1747328;81;21044;-62
2022/08/20 01:02:10;;;;;;;10.98;5.00;;;;;;;19.08;89.67;97845.12;1722590;82;21684;-62
2022/08/20 01:04:37;;;;;;;10.93;4.70;;;;;;;19.06;89.80;97843.33;1750245;82;21030;-62
2022/08/20 01:07:05;;;;;;;7.72;4.37;;;;;;;19.06;89.90;97833.03;1751092;80;21426;-62
2022/08/20 01:09:33;;;;;;;5.87;4.20;;;;;;;19.05;90.08;97838.25;1745308;80;21012;-62
2022/08/20 01:12:01;;;;;;;8.48;5.10;;;;;;;19.00;90.31;97838.51;1749750;80;20956;-62
2022/08/20 01:17:06;;;;;;;10.85;5.28;;;;;;;18.92;90.72;97840.80;1746558;81;21621;-62
2022/08/20 01:19:42;;;;;;;12.78;5.00;;;;;;;18.91;90.89;97837.30;1747380;80;20872;-61
2022/08/20 01:25:06;;;;;;;8.98;5.00;;;;;;;18.86;91.20;97837.58;1747007;81;20943;-61
2022/08/20 01:27:34;;;;;;;7.85;4.60;;;;;;;18.83;91.31;97828.77;1742834;80;21432;-60
2022/08/20 01:30:00;;;;;;;10.38;5.20;;;;;;;18.80;91.57;97824.02;1744668;80;21008;-61
2022/08/20 01:32:27;;;;;;;11.35;4.92;;;;;;;18.78;91.64;97829.01;1750663;81;20995;-61
2022/08/20 01:34:54;;;;;;;11.70;5.03;;;;;;;18.76;91.69;97831.28;1744646;81;20903;-62
2022/08/20 01:37:20;;;;;;;10.98;4.97;;;;;;;18.75;91.97;97832.97;1746172;81;21074;-64
2022/08/20 01:39:46;;;;;;;9.68;4.85;;;;;;;18.71;92.02;97828.82;1747407;81;21153;-62
2022/08/20 01:42:26;;;;;;;9.23;5.03;;;;;;;18.70;92.14;97829.17;1743876;81;21423;-62
2022/08/20 01:44:53;;;;;;;10.65;4.95;;;;;;;18.66;92.32;97823.64;1737142;81;21518;-62
2022/08/20 01:47:24;;;;;;;11.33;4.95;;;;;;;18.64;92.44;97825.91;1738864;81;20944;-62
2022/08/20 01:49:58;;;;;;;10.80;4.67;;;;;;;18.62;92.54;97821.97;1743082;81;21491;-60
2022/08/20 01:52:33;;;;;;;11.48;4.65;;;;;;;18.58;92.67;97818.38;1740975;80;21204;-62
2022/08/20 01:55:01;;;;;;;10.05;4.45;;;;;;;18.54;93.06;97820.98;1748303;81;20987;-60
2022/08/20 01:57:28;;;;;;;11.95;5.60;;;;;;;18.51;93.18;97829.83;1748400;80;21408;-60
2022/08/20 01:59:55;;;;;;;7.08;4.42;;;;;;;18.49;93.30;97833.42;1739918;81;20888;-61
2022/08/20 02:02:23;;;;;;;9.90;5.22;;;;;;;18.49;93.34;97836.14;1750757;82;20936;-60
2022/08/20 02:04:50;;;;;;;10.63;5.00;;;;;;;18.48;93.43;97834.58;1744909;81;21881;-61
2022/08/20 02:07:20;;;;;;;9.03;5.00;;;;;;;18.43;93.63;97842.36;1750816;82;21026;-60
2022/08/20 02:09:47;;;;;;;11.75;5.33;;;;;;;18.42;93.80;97841.33;1748521;81;21561;-60
2022/08/20 02:12:14;;;;;;;11.63;4.80;;;;;;;18.43;93.98;97841.00;1751090;81;20943;-60
2022/08/20 02:14:46;;;;;;;11.10;5.35;;;;;;;18.43;93.97;97843.72;1750799;82;20951;-62
2022/08/20 02:17:13;;;;;;;9.38;4.80;;;;;;;18.43;93.99;97845.07;1749147;80;21239;-61
2022/08/20 02:19:44;;;;;;;11.97;5.00;;;;;;;18.42;94.05;97842.69;1745035;81;21558;-61
2022/08/20 02:22:25;;;;;;;7.50;4.30;;;;;;;18.42;94.13;97844.04;1748939;81;21408;-61
2022/08/20 02:24:52;;;;;;;6.97;4.95;;;;;;;18.43;94.10;97846.98;1748560;81;20983;-61
2022/08/20 02:27:22;;;;;;;11.48;4.78;;;;;;;18.43;94.13;97846.98;1747546;81;21050;-62
2022/08/20 02:29:49;;;;;;;10.75;5.53;;;;;;;18.41;94.06;97843.28;1744177;80;21875;-62
2022/08/20 02:32:19;;;;;;;12.18;4.97;;;;;;;18.38;94.04;97841.80;1748674;81;20919;-62
2022/08/20 02:34:46;;;;;;;7.28;4.60;;;;;;;18.36;94.18;97842.16;1744570;81;20881;-61
2022/08/20 02:37:17;;;;;;;8.10;4.80;;;;;;;18.35;94.12;97834.34;1748331;81;20947;-62
2022/08/20 02:39:45;;;;;;;10.65;5.20;;;;;;;18.33;94.24;97833.91;1741353;81;20888;-60
2022/08/20 02:42:12;;;;;;;11.63;5.33;;;;;;;18.32;94.32;97830.99;1739442;81;21259;-62
2022/08/20 02:44:39;;;;;;;15.13;5.20;;;;;;;18.33;94.28;97827.92;1750309;81;20984;-61
2022/08/20 02:47:06;;;;;;;11.53;4.92;;;;;;;18.34;94.13;97826.02;1745715;81;21392;-61
2022/08/20 02:49:33;;;;;;;8.73;4.67;;;;;;;18.28;94.11;97824.66;1746509;80;20954;-61
2022/08/20 02:52:00;;;;;;;11.68;4.92;;;;;;;18.24;94.36;97830.55;1749194;80;21138;-60
2022/08/20 02:54:28;;;;;;;11.73;4.70;;;;;;;18.18;94.48;97824.57;1746894;81;21797;-61
2022/08/20 02:56:54;;;;;;;10.45;5.20;;;;;;;18.17;94.56;97822.21;1745965;81;20960;-63
2022/08/20 02:59:21;;;;;;;6.78;5.03;;;;;;;18.14;94.64;97819.63;1744100;81;21023;-62
2022/08/20 03:01:48;;;;;;;8.98;4.95;;;;;;;18.11;94.79;97823.59;1750612;79;21506;-61
2022/08/20 03:04:15;;;;;;;12.70;4.90;;;;;;;18.08;94.91;97825.07;1751485;81;20943;-61
2022/08/20 03:06:41;;;;;;;7.55;4.67;;;;;;;18.06;94.98;97820.56;1744218;81;21112;-60
2022/08/20 03:09:08;;;;;;;11.15;5.25;;;;;;;18.03;95.14;97819.09;1749237;80;20993;-61
2022/08/20 03:11:34;;;;;;;7.92;5.37;;;;;;;17.97;95.25;97821.23;1746197;81;20908;-61
2022/08/20 03:14:02;;;;;;;8.75;4.87;;;;;;;17.96;95.39;97821.59;1741873;81;20951;-61
2022/08/20 03:16:29;;;;;;;6.87;5.08;;;;;;;17.95;95.45;97820.00;1748943;81;21015;-61
2022/08/20 03:18:56;;;;;;;9.08;4.78;;;;;;;17.92;95.56;97821.50;1751175;81;21541;-61
2022/08/20 03:21:22;;;;;;;9.55;4.83;;;;;;;17.90;95.63;97828.38;1746202;81;21060;-61
2022/08/20 03:23:49;;;;;;;8.85;4.83;;;;;;;17.86;95.75;97822.05;1748508;81;21020;-61
2022/08/20 03:26:16;;;;;;;10.08;4.40;;;;;;;17.87;95.98;97825.79;1746372;81;20987;-60
2022/08/20 03:28:42;;;;;;;14.50;6.20;;;;;;;17.90;96.05;97827.03;1748617;80;21166;-60
2022/08/20 03:31:09;;;;;;;7.20;5.30;;;;;;;17.92;96.07;97824.77;1745324;81;21091;-61
2022/08/20 03:33:38;;;;;;;7.80;4.72;;;;;;;17.93;96.03;97820.34;1750206;81;20991;-60
2022/08/20 03:36:06;;;;;;;8.48;4.80;;;;;;;17.97;95.91;97823.18;1749993;81;21427;-62
2022/08/20 03:38:33;;;;;;;6.30;4.40;;;;;;;17.97;95.81;97825.30;1750111;81;21479;-61
2022/08/20 03:41:01;;;;;;;9.58;4.97;;;;;;;17.96;95.76;97824.30;1741170;81;21487;-62
2022/08/20 03:43:28;;;;;;;10.60;5.25;;;;;;;17.96;95.81;97825.66;1746969;81;21098;-62
2022/08/20 03:45:55;;;;;;;10.58;5.10;;;;;;;17.97;95.82;97825.89;1750489;81;20928;-61
2022/08/20 03:48:21;;;;;;;8.38;4.67;;;;;;;17.94;95.76;97830.07;1748228;81;20939;-62
2022/08/20 03:50:49;;;;;;;9.38;4.80;;;;;;;17.93;95.78;97827.13;1739614;80;21015;-62
2022/08/20 03:53:16;;;;;;;7.47;4.87;;;;;;;17.93;95.90;97833.09;1750873;81;21039;-61
2022/08/20 03:55:46;;;;;;;11.57;5.12;;;;;;;17.95;95.92;97829.48;1749810;82;21067;-62
2022/08/20 03:58:13;;;;;;;8.25;4.80;;;;;;;17.94;95.96;97829.27;1749997;80;20848;-61
2022/08/20 04:00:46;;;;;;;9.30;5.40;;;;;;;17.95;95.94;97828.13;1751111;81;20911;-61
2022/08/20 04:03:13;;;;;;;11.20;5.35;;;;;;;17.95;95.90;97828.13;1748055;81;20916;-61
2022/08/20 04:05:41;;;;;;;11.55;4.78;;;;;;;17.95;95.91;97828.92;1750843;80;20959;-62
2022/08/20 04:08:14;;;;;;;10.72;4.83;;;;;;;17.98;95.92;97836.94;1743697;81;21021;-62
2022/08/20 04:10:43;;;;;;;9.70;5.10;;;;;;;18.02;95.84;97837.82;1744701;81;21004;-61
2022/08/20 04:13:09;;;;;;;15.25;4.70;;;;;;;18.03;95.76;97838.05;1746036;81;20995;-61
2022/08/20 04:15:36;;;;;;;12.07;4.90;;;;;;;18.04;95.66;97839.65;1737798;81;20892;-61
2022/08/20 04:18:06;;;;;;;10.65;5.00;;;;;;;18.06;95.55;97842.80;1743363;81;21023;-62
2022/08/20 04:20:34;;;;;;;9.10;4.70;;;;;;;18.05;95.42;97847.42;1750300;82;21205;-62
2022/08/20 04:23:00;;;;;;;8.28;4.92;;;;;;;18.05;95.39;97852.05;1749990;80;21491;-61
2022/08/20 04:25:28;;;;;;;10.20;5.15;;;;;;;18.05;95.43;97854.76;1744035;81;21003;-62
2022/08/20 04:27:54;;;;;;;7.85;5.37;;;;;;;18.09;95.40;97857.03;1741256;81;21038;-60
2022/08/20 04:30:22;;;;;;;9.38;4.80;;;;;;;18.14;95.33;97850.80;1742009;80;20857;-62
2022/08/20 04:32:48;;;;;;;8.30;4.42;;;;;;;18.21;95.01;97866.47;1748620;80;21111;-62
2022/08/20 04:35:16;;;;;;;10.35;4.58;;;;;;;18.20;94.76;97867.62;1748777;81;20935;-62
2022/08/20 04:37:49;;;;;;;7.15;4.92;;;;;;;18.20;94.74;97864.91;1742232;80;20904;-62
2022/08/20 04:43:06;;;;;;;8.85;4.87;;;;;;;18.21;94.72;97878.67;1750716;81;21035;-62
2022/08/20 04:45:33;;;;;;;9.80;5.42;;;;;;;18.21;94.64;97882.73;1741146;80;21101;-61
2022/08/20 04:48:04;;;;;;;11.30;4.92;;;;;;;18.23;94.65;97874.48;1744750;81;21562;-62
2022/08/20 04:50:35;;;;;;;9.28;4.70;;;;;;;18.26;94.55;97877.08;1747400;80;21011;-61
2022/08/20 04:53:03;;;;;;;9.58;5.05;;;;;;;18.29;94.38;97875.05;1747238;81;20989;-62
2022/08/20 04:55:30;;;;;;;10.43;4.95;;;;;;;18.32;94.27;97873.02;1746611;80;20873;-61
2022/08/20 04:58:08;;;;;;;10.85;4.97;;;;;;;18.33;94.25;97874.58;1748325;81;21208;-63
2022/08/20 05:00:35;;;;;;;7.40;4.90;;;;;;;18.37;94.16;97865.41;1750075;81;21043;-61
2022/08/20 05:03:01;;;;;;;6.83;4.70;;;;;;;18.42;93.99;97852.97;1743126;81;21009;-61
2022/08/20 05:05:29;;;;;;;7.72;4.85;;;;;;;18.46;93.75;97857.19;1748339;81;21475;-63
2022/08/20 05:07:57;;;;;;;9.35;4.95;;;;;;;18.50;93.65;97863.49;1750811;81;20991;-62
2022/08/20 05:10:24;;;;;;;10.48;5.08;;;;;;;18.55;93.44;97860.54;1752901;80;21124;-62
2022/08/20 05:12:50;;;;;;;10.80;4.90;;;;;;;18.58;93.37;97857.14;1748728;81;21006;-62
2022/08/20 05:15:17;;;;;;;11.30;4.87;;;;;;;18.65;93.27;97858.70;1750166;82;20995;-63
2022/08/20 05:17:44;;;;;;;6.90;4.47;;;;;;;18.71;93.08;97859.22;1744345;80;20920;-63
2022/08/20 05:20:15;;;;;;;11.90;5.35;;;;;;;18.74;92.83;97868.83;1750952;81;21430;-62
2022/08/20 05:22:43;;;;;;;12.63;5.17;;;;;;;18.78;92.70;97864.28;1748771;81;21668;-62
2022/08/20 05:25:09;;;;;;;9.80;4.75;;;;;;;18.85;92.55;97860.97;1750355;81;20900;-62
2022/08/20 05:27:36;;;;;;;14.40;4.97;;;;;;;18.92;92.40;97861.95;1747640;81;20888;-62
2022/08/20 05:30:08;;;;;;;9.23;5.00;;;;;;;18.98;92.19;97860.55;1749684;80;37738;-62
2022/08/20 05:32:35;;;;;;;11.83;5.37;;;;;;;19.04;91.90;97863.25;1749910;81;20872;-61
2022/08/20 05:35:08;;;;;;;10.75;5.30;;;;;;;19.12;91.71;97865.59;1748472;81;21114;-61
2022/08/20 05:37:40;;;;;;;8.83;4.80;;;;;;;19.20;91.59;97858.39;1750659;79;21526;-62
2022/08/20 05:40:12;;;;;;;7.58;5.05;;;;;;;19.28;91.38;97855.52;1748723;81;21518;-62
2022/08/20 05:42:38;;;;;;;8.45;4.72;;;;;;;19.37;91.01;97854.81;1745233;80;21535;-61
2022/08/20 05:45:07;;;;;;;8.53;4.85;;;;;;;19.47;90.52;97860.28;1740231;81;20904;-62
2022/08/20 05:47:37;;;;;;;8.23;4.95;;;;;;;19.53;90.07;97867.02;1749305;80;21678;-62
2022/08/20 05:50:05;;;;;;;10.72;4.83;;;;;;;19.58;89.60;97868.12;1726926;80;21515;-62
2022/08/20 05:52:31;;;;;;;11.22;5.00;;;;;;;19.63;89.35;97864.58;1741216;81;21468;-61
2022/08/20 05:54:58;;;;;;;10.72;4.97;;;;;;;19.68;89.18;97871.67;1747292;81;20935;-61
2022/08/20 05:57:25;;;;;;;10.20;4.80;;;;;;;19.76;88.97;97874.75;1746511;81;21027;-62
2022/08/20 05:59:52;;;;;;;11.05;4.97;;;;;;;19.86;88.65;97872.06;1751457;81;21980;-62
2022/08/20 06:05:04;;;;;;;8.15;4.97;;;;;;;20.09;87.73;97864.27;1751034;81;20908;-62
2022/08/20 06:07:31;;;;;;;12.28;4.97;;;;;;;20.22;87.25;97869.05;1750873;80;21406;-61
2022/08/20 06:09:59;;;;;;;12.40;4.85;;;;;;;20.28;86.88;97864.33;1740992;82;21050;-63
2022/08/20 06:12:25;;;;;;;9.20;4.85;;;;;;;20.33;86.44;97861.89;1720727;82;21792;-63
2022/08/20 06:14:52;;;;;;;9.05;4.45;;;;;;;20.34;86.01;97865.64;1750755;81;21028;-62
2022/08/20 06:17:19;;;;;;;8.73;4.65;;;;;;;20.32;85.58;97862.49;1748020;81;21423;-62
2022/08/20 06:19:46;;;;;;;10.20;5.12;;;;;;;20.29;85.50;97863.77;1743951;80;20972;-62
2022/08/20 06:22:13;;;;;;;9.25;4.72;;;;;;;20.30;85.57;97859.31;1747994;81;20916;-61
2022/08/20 06:24:39;;;;;;;10.13;5.03;;;;;;;20.35;85.55;97857.68;1743856;81;21112;-63
2022/08/20 06:27:06;;;;;;;9.60;5.60;;;;;;;20.42;85.33;97855.11;1746140;81;20850;-62
2022/08/20 06:29:34;;;;;;;9.08;4.78;;;;;;;20.49;85.01;97855.05;1742262;81;20952;-63
2022/08/20 06:32:01;;;;;;;10.45;4.92;;;;;;;20.56;84.63;97845.08;1749671;81;21026;-62
2022/08/20 06:34:28;;;;;;;12.18;5.00;;;;;;;20.61;84.27;97843.44;1746789;81;21099;-62
2022/08/20 06:36:55;;;;;;;10.58;5.45;;;;;;;20.70;84.21;97846.75;1745665;80;21227;-63
2022/08/20 06:39:23;;;;;;;9.95;5.10;;;;;;;20.80;83.75;97850.80;1746037;81;20967;-62
2022/08/20 06:41:57;;;;;;;7.90;5.00;;;;;;;20.87;83.33;97860.45;1745117;80;21573;-62
2022/08/20 06:44:18;;;;;;;8.88;4.87;;;;;;;20.87;83.29;97859.09;1739996;81;20944;-62
2022/08/20 06:46:45;;;;;;;10.80;5.58;;;;;;;20.93;83.32;97859.83;1749172;81;21009;-63
2022/08/20 06:49:12;;;;;;;9.18;4.72;;;;;;;21.01;83.12;97866.17;1742227;80;21223;-63
2022/08/20 06:51:38;;;;;;;9.53;5.03;;;;;;;21.09;82.93;97868.70;1750634;81;20955;-64
2022/08/20 06:54:04;;;;;;;8.63;5.10;;;;;;;21.20;82.52;97868.89;1752336;80;20864;-63
2022/08/20 06:56:32;;;;;;;8.90;4.80;;;;;;;21.30;81.95;97868.30;1744911;81;20948;-63
2022/08/20 06:58:59;;;;;;;7.45;4.42;;;;;;;21.36;81.40;97865.47;1748381;82;20959;-63
2022/08/20 07:01:25;;;;;;;10.38;4.97;;;;;;;21.44;81.17;97864.45;1746840;81;22074;-63
2022/08/20 07:03:57;;;;;;;10.95;4.60;;;;;;;21.53;80.89;97863.62;1749453;80;20936;-63
2022/08/20 07:06:24;;;;;;;12.55;5.00;;;;;;;21.61;80.11;97868.05;1746426;81;20964;-63
2022/08/20 07:08:52;;;;;;;8.45;4.62;;;;;;;21.68;80.18;97864.65;1745982;80;20984;-63
2022/08/20 07:11:19;;;;;;;8.50;4.62;;;;;;;21.78;79.49;97879.83;1751270;80;20955;-64
2022/08/20 07:13:48;;;;;;;9.05;4.65;;;;;;;21.88;78.54;97882.50;1746069;81;21981;-64
2022/08/20 07:16:15;;;;;;;8.10;4.65;;;;;;;21.97;78.31;97880.91;1750298;80;21039;-64
2022/08/20 07:18:42;;;;;;;10.18;4.97;;;;;;;22.11;78.20;97886.56;1755589;80;21400;-64
2022/08/20 07:21:10;;;;;;;7.47;4.33;;;;;;;22.24;77.68;97877.80;1751390;80;21053;-63
2022/08/20 07:23:37;;;;;;;10.23;4.70;;;;;;;22.36;77.00;97874.84;1744982;80;20892;-62
2022/08/20 07:26:06;;;;;;;8.95;4.53;;;;;;;22.48;76.29;97879.28;1756686;80;21110;-62
2022/08/20 07:28:33;;;;;;;6.35;4.30;;;;;;;22.56;76.44;97882.32;1758332;80;21039;-62
2022/08/20 07:33:44;;;;;;;9.20;4.58;;;;;;;22.65;75.30;97874.66;1760020;78;21016;-59
2022/08/20 07:36:11;;;;;;;8.28;4.37;;;;;;;22.68;74.42;97874.50;1765969;80;20952;-64
2022/08/20 07:38:38;;;;;;;9.03;4.50;;;;;;;22.72;74.33;97869.86;1719845;82;21005;-63
2022/08/20 07:41:08;;;;;;;7.90;4.30;;;;;;;22.80;74.42;97870.92;1746522;80;20916;-60
2022/08/20 07:43:35;;;;;;;10.85;4.33;;;;;;;22.91;74.08;97863.66;1735573;82;21592;-60
2022/08/20 07:46:07;;;;;;;8.88;4.55;;;;;;;23.10;73.70;97868.15;1686134;83;21136;-60
2022/08/20 07:48:31;;;;;;;11.03;4.25;;;;;;;23.26;73.24;97876.89;1680410;83;20916;-62
2022/08/20 07:50:59;;;;;;;8.10;4.45;;;;;;;23.39;72.33;97874.11;1752870;80;21235;-62
2022/08/20 07:53:25;;;;;;;7.97;4.10;;;;;;;23.51;72.17;97876.56;1749897;80;20963;-61
2022/08/20 07:55:52;;;;;;;12.37;4.10;;;;;;;23.57;71.16;97883.27;1743171;81;20929;-62
2022/08/20 07:58:21;;;;;;;11.75;4.47;;;;;;;23.53;70.73;97878.94;1756336;80;20959;-61
2022/08/20 08:00:47;;;;;;;9.98;4.50;;;;;;;23.48;70.64;97887.48;1758643;80;21032;-61
2022/08/20 08:03:14;;;;;;;12.88;4.75;;;;;;;23.39;70.80;97890.50;1752699;80;21171;-61
2022/08/20 08:05:44;;;;;;;6.33;4.03;;;;;;;23.31;70.86;97886.70;1737229;81;20932;-61
2022/08/20 08:08:16;;;;;;;8.60;4.50;;;;;;;23.29;70.84;97880.25;1749766;80;21510;-60
2022/08/20 08:10:45;;;;;;;8.43;4.40;;;;;;;23.32;71.50;97882.20;1761688;79;21509;-61
2022/08/20 08:13:13;;;;;;;10.90;5.05;;;;;;;23.42;71.17;97875.30;1752681;81;20997;-61
2022/08/20 08:15:45;;;;;;;6.20;4.08;;;;;;;23.55;71.37;97872.51;1758194;80;21023;-61
2022/08/20 08:18:17;;;;;;;8.53;4.33;;;;;;;23.70;70.82;97875.55;1761047;80;20971;-62
2022/08/20 08:20:43;;;;;;;10.32;4.37;;;;;;;23.86;69.58;97869.22;1743421;80;20892;-62
2022/08/20 08:23:11;;;;;;;9.68;4.40;;;;;;;24.01;69.50;97864.06;1751674;80;21063;-61
2022/08/20 08:25:44;;;;;;;9.25;4.55;;;;;;;24.16;69.06;97863.03;1751026;80;20991;-62
2022/08/20 08:28:13;;;;;;;11.48;4.35;;;;;;;24.26;68.72;97854.68;1774781;80;21395;-61
2022/08/20 08:30:45;;;;;;;11.35;4.15;;;;;;;24.33;68.14;97847.88;1761813;80;20984;-61
2022/08/20 08:33:32;;;;;;;12.10;4.42;;;;;;;24.42;67.62;97854.55;1738612;82;21013;-62
2022/08/20 08:36:05;;;;;;;9.78;4.22;;;;;;;24.45;66.83;97852.41;1737560;81;21583;-63
2022/08/20 08:38:34;;;;;;;11.18;4.62;;;;;;;24.40;67.13;97852.78;1729401;82;21029;-63
2022/08/20 08:41:11;;;;;;;7.22;4.35;;;;;;;24.43;67.75;97849.28;1728393;82;21107;-61
2022/08/20 08:43:37;;;;;;;8.55;4.50;;;;;;;24.52;67.69;97850.28;1719639;82;21493;-61
2022/08/20 08:46:06;;;;;;;12.45;4.70;;;;;;;24.59;67.61;97846.20;1756447;81;20925;-62
2022/08/20 08:48:36;;;;;;;9.58;4.58;;;;;;;24.65;67.26;97856.22;1752987;80;20926;-62
2022/08/20 08:51:11;;;;;;;7.55;4.58;;;;;;;24.64;67.11;97852.69;1750318;81;21428;-63
2022/08/20 08:53:37;;;;;;;10.48;4.53;;;;;;;24.67;66.82;97857.40;1746042;81;21089;-62
2022/08/20 08:56:05;;;;;;;9.08;3.92;;;;;;;24.75;67.43;97858.22;1749386;81;20928;-62
2022/08/20 08:58:34;;;;;;;7.83;4.15;;;;;;;24.87;66.53;97851.81;1760669;80;20858;-64
2022/08/20 09:01:17;;;;;;;10.20;4.50;;;;;;;24.96;65.89;97846.78;1760278;81;21087;-63
2022/08/20 09:03:45;;;;;;;11.22;4.25;;;;;;;25.00;65.39;97846.19;1756308;81;20911;-62
2022/08/20 09:06:16;;;;;;;8.70;4.28;;;;;;;24.94;64.99;97846.96;1740052;81;21508;-61
2022/08/20 09:08:50;;;;;;;11.73;4.62;;;;;;;24.91;64.95;97842.25;1751384;80;21419;-63
2022/08/20 09:11:18;;;;;;;12.47;4.08;;;;;;;24.96;64.97;97837.19;1751048;80;20894;-63
2022/08/20 09:13:44;;;;;;;8.90;4.00;;;;;;;25.03;64.59;97839.16;1755654;81;20989;-62
2022/08/20 09:16:11;;;;;;;10.58;3.83;;;;;;;25.10;64.45;97832.31;1749233;80;21125;-62
2022/08/20 09:18:38;;;;;;;9.75;3.83;;;;;;;25.17;64.09;97832.33;1752589;79;21142;-63
2022/08/20 09:21:06;;;;;;;6.45;3.80;;;;;;;25.28;64.06;97837.23;1753274;80;20969;-62
2022/08/20 09:23:32;;;;;;;9.23;4.15;;;;;;;25.40;63.40;97831.36;1750193;81;21000;-64
2022/08/20 09:25:59;;;;;;;7.20;3.70;;;;;;;25.51;62.85;97834.13;1754085;81;21392;-63
2022/08/20 09:28:25;;;;;;;10.00;3.83;;;;;;;25.56;62.32;97831.78;1745205;79;21444;-63
2022/08/20 09:30:52;;;;;;;6.55;3.47;;;;;;;25.61;62.21;97825.12;1752062;81;21106;-63
2022/08/20 09:33:18;;;;;;;10.08;3.85;;;;;;;25.79;61.05;97825.30;1749593;79;20934;-62
2022/08/20 09:35:45;;;;;;;11.85;4.28;;;;;;;25.79;61.05;97825.30;1738836;80;20855;-62
2022/08/20 09:38:12;;;;;;;9.33;3.40;;;;;;;25.92;61.36;97826.27;1746311;81;20943;-62
2022/08/20 09:40:39;;;;;;;11.20;3.58;;;;;;;25.98;60.70;97822.72;1735863;81;21513;-61
2022/08/20 09:43:06;;;;;;;12.43;4.30;;;;;;;26.15;59.60;97815.66;1749862;80;21933;-61
2022/08/20 09:45:33;;;;;;;6.85;3.70;;;;;;;26.15;59.60;97815.66;1734618;81;20926;-60
2022/08/20 09:48:00;;;;;;;10.45;3.98;;;;;;;26.27;59.85;97819.34;1753376;80;21499;-62
2022/08/20 09:50:29;;;;;;;7.55;3.80;;;;;;;26.40;59.47;97808.14;1742708;80;20902;-62
2022/08/20 09:52:57;;;;;;;9.80;3.75;;;;;;;26.51;59.20;97805.34;1740722;81;20957;-61
2022/08/20 09:55:34;;;;;;;7.40;3.20;;;;;;;26.61;58.41;97805.30;1754415;79;21289;-62
2022/08/20 09:58:05;;;;;;;5.92;3.22;;;;;;;26.73;57.54;97808.98;1752847;81;20898;-62
2022/08/20 10:00:31;;;;;;;5.72;3.10;;;;;;;26.77;56.67;97801.52;1747127;81;20938;-64
2022/08/20 10:02:59;;;;;;;5.60;3.35;;;;;;;26.72;56.26;97810.14;1759266;80;20988;-63
2022/08/20 10:05:26;;;;;;;9.53;3.20;;;;;;;26.62;56.10;97805.48;1753613;80;21463;-62
2022/08/20 10:07:53;;;;;;;10.58;3.10;;;;;;;26.52;56.65;97813.16;1751388;81;21291;-63
2022/08/20 10:10:19;;;;;;;5.42;3.10;;;;;;;26.48;57.39;97811.83;1742072;81;20976;-62
2022/08/20 10:12:46;;;;;;;5.47;2.70;;;;;;;26.55;56.55;97806.88;1743999;80;21114;-62
2022/08/20 10:15:13;;;;;;;7.05;2.90;;;;;;;26.69;56.18;97808.19;1749623;80;20937;-62
2022/08/20 10:17:41;;;;;;;5.50;3.17;;;;;;;26.87;55.90;97807.55;1765740;81;21019;-63
2022/08/20 10:20:10;;;;;;;10.43;3.58;;;;;;;26.97;55.89;97812.18;1733754;82;21101;-63
2022/08/20 10:22:37;;;;;;;4.65;2.70;;;;;;;26.91;54.85;97815.77;1723199;82;21414;-63
2022/08/20 10:25:05;;;;;;;9.80;2.60;;;;;;;26.71;55.29;97819.55;1765317;81;20862;-62
2022/08/20 10:27:32;;;;;;;7.87;2.70;;;;;;;26.51;55.61;97808.88;1759040;79;20857;-63
2022/08/20 10:29:58;;;;;;;5.35;3.08;;;;;;;26.29;55.48;97810.12;1752728;80;20972;-63
2022/08/20 10:32:25;;;;;;;5.70;2.60;;;;;;;26.00;55.61;97811.38;1744482;81;21081;-63
2022/08/20 10:34:52;;;;;;;7.17;2.40;;;;;;;25.84;56.61;97804.16;1742909;81;21010;-63
2022/08/20 10:37:21;;;;;;;5.45;2.37;;;;;;;25.78;56.72;97808.66;1747376;79;20905;-63
2022/08/20 10:39:48;;;;;;;5.10;2.10;;;;;;;25.84;56.46;97806.28;1750783;81;21034;-63
2022/08/20 10:42:14;;;;;;;6.85;2.40;;;;;;;25.92;56.14;97798.25;1768246;81;20881;-63
2022/08/20 10:44:41;;;;;;;6.20;2.17;;;;;;;25.99;56.01;97801.56;1750088;81;21071;-63
2022/08/20 10:47:19;;;;;;;3.30;2.00;;;;;;;26.07;55.60;97799.00;1765083;81;21015;-62
2022/08/20 10:49:47;;;;;;;3.75;2.20;;;;;;;26.07;55.60;97799.00;1742193;80;20946;-63
2022/08/20 10:52:14;;;;;;;5.05;2.30;;;;;;;25.97;54.44;97802.55;1748592;81;20957;-63
2022/08/20 10:54:41;;;;;;;5.12;2.10;;;;;;;25.97;54.44;97802.55;1752749;81;21440;-63
2022/08/20 10:57:17;;;;;;;8.28;2.02;;;;;;;25.96;54.21;97801.76;1759896;79;21235;-63
2022/08/20 10:59:45;;;;;;;3.60;2.05;;;;;;;25.94;54.48;97804.70;1754252;80;20899;-63
2022/08/20 11:02:12;;;;;;;6.58;1.92;;;;;;;25.91;53.81;97804.90;1755682;81;20986;-63
2022/08/20 11:04:43;;;;;;;6.22;2.10;;;;;;;25.87;53.41;97804.72;1741634;81;21048;-63
2022/08/20 11:07:18;;;;;;;5.03;1.90;;;;;;;25.87;53.41;97804.72;1738731;81;21047;-63
2022/08/20 11:09:47;;;;;;;4.92;2.30;;;;;;;25.68;53.46;97794.37;1751896;81;21770;-62
2022/08/20 11:12:14;;;;;;;5.78;1.90;;;;;;;25.68;53.46;97794.37;1751206;81;20901;-62
2022/08/20 11:14:41;;;;;;;5.05;1.87;;;;;;;25.64;53.21;97792.23;1763397;80;20978;-62
2022/08/20 11:17:07;;;;;;;8.13;1.67;;;;;;;25.75;53.08;97790.24;1743603;81;21263;-62
2022/08/20 11:19:42;;;;;;;13.43;1.75;;;;;;;26.01;53.70;97786.27;1747544;81;21101;-63
2022/08/20 11:22:09;;;;;;;4.10;1.98;;;;;;;26.19;52.76;97782.14;1751841;80;21261;-62
2022/08/20 11:24:36;;;;;;;4.70;1.60;;;;;;;26.21;52.47;97781.15;1756683;80;21521;-62
2022/08/20 11:27:06;;;;;;;4.75;1.60;;;;;;;26.19;51.72;97786.26;1752340;81;20971;-61
2022/08/20 11:29:35;;;;;;;5.00;2.05;;;;;;;26.31;51.75;97772.07;1752604;79;21036;-61
2022/08/20 11:32:03;;;;;;;6.75;1.85;;;;;;;26.50;51.34;97768.84;1758702;81;20898;-61
2022/08/20 11:34:29;;;;;;;4.67;1.98;;;;;;;26.62;51.91;97771.73;1765322;81;21006;-62
2022/08/20 11:36:57;;;;;;;5.58;2.00;;;;;;;26.69;51.71;97778.56;1734267;82;21502;-61
2022/08/20 11:39:25;;;;;;;5.62;1.85;;;;;;;26.87;51.76;97775.95;1692261;84;20948;-62
2022/08/20 11:41:52;;;;;;;4.75;1.50;;;;;;;27.19;50.96;97774.93;1752659;80;20958;-62
2022/08/20 11:44:18;;;;;;;4.10;1.80;;;;;;;27.35;49.68;97774.60;1755678;81;21068;-62
2022/08/20 11:46:45;;;;;;;3.08;1.60;;;;;;;27.29;49.60;97776.23;1750949;80;21063;-62
2022/08/20 11:49:11;;;;;;;5.17;1.80;;;;;;;27.13;49.44;97782.84;1754683;80;20894;-61